Time;durP1;ratioP1;P1;durP2;ratioP2;P2;SDS_P1;SDS_P2;PMS_P1;PMS_P2;Temp;Humidity;BMP_temperature;BMP_pressure;BME280_temperature;BME280_humidity;BME280_pressure;Samples;Min_cycle;Max_cycle;Signal;HPM_P1;HPM_P2
2022/05/23 00:00:57;;;;;;;;;;;25.90;37.50;;;;;;1538303;76;1184;-54
2022/05/23 00:02:58;;;;;;;;;;;25.90;37.60;;;;;;1551355;76;1708;-57
2022/05/23 00:05:01;;;;;;;;;;;25.90;37.70;;;;;;1549624;76;812;-57
2022/05/23 00:07:03;;;;;;;;;;;25.90;37.80;;;;;;1550312;76;656;-58
2022/05/23 00:09:05;;;;;;;;;;;25.90;37.80;;;;;;1559573;76;1938;-58
2022/05/23 00:11:07;;;;;;;;;;;25.90;37.80;;;;;;1558755;76;1080;-58
2022/05/23 00:13:08;;;;;;;;;;;25.90;37.90;;;;;;1559598;76;763;-56
2022/05/23 00:15:11;;;;;;;;;;;25.90;38.00;;;;;;1547948;76;753;-54
2022/05/23 00:17:12;;;;;;;;;;;25.90;38.00;;;;;;1539091;76;680;-55
2022/05/23 00:19:14;;;;;;;;;;;25.90;38.00;;;;;;1559620;76;759;-54
2022/05/23 00:21:17;;;;;;;;;;;25.90;38.00;;;;;;1558861;76;1160;-57
2022/05/23 00:23:18;;;;;;;;;;;25.90;37.80;;;;;;1559604;76;690;-57
2022/05/23 00:25:20;;;;;;;;;;;25.90;38.00;;;;;;1544821;76;722;-57
2022/05/23 00:27:23;;;;;;;;;;;25.90;37.90;;;;;;1551126;76;575;-55
2022/05/23 00:29:24;;;;;;;;;;;25.90;38.00;;;;;;1546626;76;1948;-58
2022/05/23 00:31:26;;;;;;;;;;;25.90;38.00;;;;;;1545842;76;1127;-55
2022/05/23 00:35:52;;;;;;;;;;;25.90;38.00;;;;;;1552143;76;1629;-53
2022/05/23 00:37:55;;;;;;;;;;;25.90;38.10;;;;;;1551713;76;760;-57
2022/05/23 00:39:57;;;;;;;;;;;25.90;38.10;;;;;;1556331;76;1148;-53
2022/05/23 00:44:20;;;;;;;;;;;25.90;38.10;;;;;;1547722;76;1709;-57
2022/05/23 00:46:22;;;;;;;;;;;25.90;38.20;;;;;;1557151;76;689;-57
2022/05/23 00:48:25;;;;;;;;;;;25.90;38.20;;;;;;1559536;76;792;-57
2022/05/23 00:50:27;;;;;;;;;;;25.80;38.20;;;;;;1559640;76;1942;-56
2022/05/23 00:52:32;;;;;;;;;;;25.90;38.30;;;;;;1546680;76;687;-57
2022/05/23 00:54:35;;;;;;;;;;;25.90;38.20;;;;;;1557306;76;721;-57
2022/05/23 00:56:39;;;;;;;;;;;25.80;38.30;;;;;;1553814;76;1810;-57
2022/05/23 00:58:42;;;;;;;;;;;25.80;38.30;;;;;;1552816;76;1960;-59
2022/05/23 01:00:43;;;;;;;;;;;25.80;38.30;;;;;;1553927;76;1150;-57
2022/05/23 01:02:47;;;;;;;;;;;25.90;38.30;;;;;;1541037;76;701;-56
2022/05/23 01:04:49;;;;;;;;;;;25.90;38.40;;;;;;1547858;76;1930;-57
2022/05/23 01:06:51;;;;;;;;;;;25.90;38.40;;;;;;1542547;76;735;-57
2022/05/23 01:08:54;;;;;;;;;;;25.90;38.30;;;;;;1556017;76;728;-53
2022/05/23 01:10:56;;;;;;;;;;;25.90;38.40;;;;;;1558630;76;1930;-57
2022/05/23 01:12:57;;;;;;;;;;;25.90;38.40;;;;;;1549195;76;1711;-57
2022/05/23 01:15:00;;;;;;;;;;;25.90;38.30;;;;;;1539299;76;768;-54
2022/05/23 01:17:02;;;;;;;;;;;25.90;38.40;;;;;;1550933;76;788;-57
2022/05/23 01:19:03;;;;;;;;;;;25.90;38.40;;;;;;1557036;76;777;-57
2022/05/23 01:21:06;;;;;;;;;;;25.90;38.40;;;;;;1556332;76;1133;-53
2022/05/23 01:23:09;;;;;;;;;;;25.90;38.40;;;;;;1552138;76;732;-55
2022/05/23 01:25:13;;;;;;;;;;;25.90;38.40;;;;;;1550564;76;663;-57
2022/05/23 01:27:15;;;;;;;;;;;25.90;38.50;;;;;;1541417;76;794;-57
2022/05/23 01:29:16;;;;;;;;;;;25.90;38.50;;;;;;1548752;76;1931;-55
2022/05/23 01:31:18;;;;;;;;;;;25.90;38.40;;;;;;1559611;76;1100;-56
2022/05/23 01:33:20;;;;;;;;;;;25.90;38.40;;;;;;1547798;76;676;-53
2022/05/23 01:35:22;;;;;;;;;;;25.90;38.40;;;;;;1553777;76;679;-54
2022/05/23 01:37:25;;;;;;;;;;;25.90;38.50;;;;;;1555534;76;737;-57
2022/05/23 01:39:26;;;;;;;;;;;25.90;38.40;;;;;;1547312;76;693;-57
2022/05/23 01:41:28;;;;;;;;;;;25.90;38.50;;;;;;1539668;76;1173;-56
2022/05/23 01:43:30;;;;;;;;;;;25.90;38.60;;;;;;1544757;76;712;-57
2022/05/23 01:45:33;;;;;;;;;;;25.90;38.60;;;;;;1532062;76;869;-57
2022/05/23 01:47:35;;;;;;;;;;;25.90;38.60;;;;;;1558270;76;665;-57
2022/05/23 01:49:37;;;;;;;;;;;25.90;38.60;;;;;;1544266;76;1943;-57
2022/05/23 01:51:39;;;;;;;;;;;25.90;38.60;;;;;;1538747;76;1114;-57
2022/05/23 01:53:41;;;;;;;;;;;25.90;38.60;;;;;;1554479;76;703;-57
2022/05/23 01:55:43;;;;;;;;;;;25.90;38.60;;;;;;1558278;76;648;-57
2022/05/23 01:57:45;;;;;;;;;;;25.90;38.60;;;;;;1544268;76;688;-57
2022/05/23 02:02:09;;;;;;;;;;;25.90;38.70;;;;;;1548524;76;1643;-57
2022/05/23 02:04:11;;;;;;;;;;;25.90;38.60;;;;;;1558495;76;683;-57
2022/05/23 02:06:13;;;;;;;;;;;25.90;38.70;;;;;;1539824;76;822;-57
2022/05/23 02:08:15;;;;;;;;;;;25.90;38.70;;;;;;1559274;75;1544;-57
2022/05/23 02:10:16;;;;;;;;;;;25.90;38.80;;;;;;1556052;76;1940;-57
2022/05/23 02:12:18;;;;;;;;;;;25.90;38.80;;;;;;1550047;76;793;-57
2022/05/23 02:14:20;;;;;;;;;;;25.90;38.80;;;;;;1547060;76;834;-57
2022/05/23 02:16:23;;;;;;;;;;;25.90;38.80;;;;;;1548378;76;704;-57
2022/05/23 02:18:25;;;;;;;;;;;26.00;39.40;;;;;;1540114;76;703;-57
2022/05/23 02:20:27;;;;;;;;;;;25.90;38.90;;;;;;1558486;76;1077;-57
2022/05/23 02:22:29;;;;;;;;;;;25.90;38.90;;;;;;1546874;76;688;-57
2022/05/23 02:24:31;;;;;;;;;;;25.90;38.90;;;;;;1553685;76;706;-57
2022/05/23 02:26:33;;;;;;;;;;;25.90;38.90;;;;;;1558076;76;693;-57
2022/05/23 02:28:35;;;;;;;;;;;25.90;39.00;;;;;;1543117;76;686;-57
2022/05/23 02:30:37;;;;;;;;;;;25.90;38.90;;;;;;1553475;76;1934;-57
2022/05/23 02:32:39;;;;;;;;;;;25.90;39.00;;;;;;1546838;76;695;-57
2022/05/23 02:34:41;;;;;;;;;;;25.90;39.00;;;;;;1542412;76;712;-58
2022/05/23 02:36:43;;;;;;;;;;;25.90;39.00;;;;;;1547768;76;657;-57
2022/05/23 02:38:45;;;;;;;;;;;25.90;39.00;;;;;;1547488;76;773;-56
2022/05/23 02:40:48;;;;;;;;;;;25.90;39.00;;;;;;1559565;76;1145;-57
2022/05/23 02:42:50;;;;;;;;;;;25.90;39.10;;;;;;1546672;76;769;-56
2022/05/23 02:44:52;;;;;;;;;;;25.90;39.00;;;;;;1556310;76;669;-57
2022/05/23 02:46:54;;;;;;;;;;;25.90;39.00;;;;;;1546495;75;723;-57
2022/05/23 02:48:56;;;;;;;;;;;25.90;39.00;;;;;;1554407;75;685;-57
2022/05/23 02:50:58;;;;;;;;;;;25.90;39.00;;;;;;1547706;75;1933;-56
2022/05/23 02:53:00;;;;;;;;;;;25.90;39.00;;;;;;1538067;75;671;-56
2022/05/23 02:55:02;;;;;;;;;;;25.90;38.90;;;;;;1545633;75;732;-57
2022/05/23 02:57:03;;;;;;;;;;;25.90;39.00;;;;;;1544301;75;650;-57
2022/05/23 02:59:05;;;;;;;;;;;25.90;39.00;;;;;;1551975;75;710;-57
2022/05/23 03:01:07;;;;;;;;;;;25.90;39.00;;;;;;1555824;75;1127;-56
2022/05/23 03:03:09;;;;;;;;;;;25.90;39.10;;;;;;1555825;75;744;-57
2022/05/23 03:05:11;;;;;;;;;;;25.90;39.10;;;;;;1547174;75;1592;-57
2022/05/23 03:07:14;;;;;;;;;;;25.90;39.10;;;;;;1549031;75;659;-57
2022/05/23 03:09:16;;;;;;;;;;;25.90;39.10;;;;;;1538980;75;749;-57
2022/05/23 03:11:18;;;;;;;;;;;25.90;39.10;;;;;;1548599;75;1944;-57
2022/05/23 03:13:19;;;;;;;;;;;25.90;39.10;;;;;;1546340;75;772;-57
2022/05/23 03:15:21;;;;;;;;;;;25.90;39.00;;;;;;1540840;75;727;-57
2022/05/23 03:17:23;;;;;;;;;;;25.90;39.00;;;;;;1545257;75;755;-58
2022/05/23 03:19:25;;;;;;;;;;;25.90;38.90;;;;;;1548118;75;1252;-57
2022/05/23 03:26:58;;;;;;;;;;;25.80;39.00;;;;;;1539453;75;1644;-57
2022/05/23 03:28:15;;;;;;;;;;;25.80;39.00;;;;;;1544335;75;1458;-57
2022/05/23 03:30:17;;;;;;;;;;;25.80;39.10;;;;;;1548422;75;1935;-57
2022/05/23 03:32:20;;;;;;;;;;;25.90;39.10;;;;;;1546277;75;1602;-58
2022/05/23 03:34:22;;;;;;;;;;;25.80;39.10;;;;;;1546904;75;767;-57
2022/05/23 03:36:24;;;;;;;;;;;25.80;39.10;;;;;;1559057;73;227804;-71
2022/05/23 03:38:27;;;;;;;;;;;25.80;39.10;;;;;;1558898;76;645;-72
2022/05/23 03:40:29;;;;;;;;;;;25.80;39.10;;;;;;1561979;75;687;-70
2022/05/23 03:42:31;;;;;;;;;;;25.80;39.10;;;;;;1559889;76;701;-71
2022/05/23 03:44:34;;;;;;;;;;;25.80;39.10;;;;;;1560023;75;1204;-70
2022/05/23 03:46:36;;;;;;;;;;;25.80;39.20;;;;;;1507662;78;1302;-71
2022/05/23 03:48:38;;;;;;;;;;;25.80;39.20;;;;;;1515210;78;699;-71
2022/05/23 03:50:40;;;;;;;;;;;25.80;39.20;;;;;;1510085;78;1942;-68
2022/05/23 03:52:42;;;;;;;;;;;25.80;39.20;;;;;;1505953;78;649;-70
2022/05/23 03:54:43;;;;;;;;;;;25.80;39.10;;;;;;1515396;78;1092;-70
2022/05/23 03:56:45;;;;;;;;;;;25.80;39.10;;;;;;1509644;78;668;-70
2022/05/23 03:58:47;;;;;;;;;;;25.90;39.10;;;;;;1480757;79;757;-72
2022/05/23 04:00:49;;;;;;;;;;;25.80;39.20;;;;;;1505167;78;1511;-70
2022/05/23 04:02:51;;;;;;;;;;;25.80;39.20;;;;;;1500677;78;680;-70
2022/05/23 04:04:53;;;;;;;;;;;25.80;39.20;;;;;;1499660;77;1138;-69
2022/05/23 04:07:02;;;;;;;;;;;25.80;39.30;;;;;;1503957;78;711;-71
2022/05/23 04:09:04;;;;;;;;;;;25.80;39.30;;;;;;1499969;78;815;-69
2022/05/23 04:11:06;;;;;;;;;;;25.80;39.20;;;;;;1493497;78;1932;-70
2022/05/23 04:13:08;;;;;;;;;;;25.80;39.20;;;;;;1498654;78;708;-69
2022/05/23 04:15:10;;;;;;;;;;;25.80;39.20;;;;;;1505112;77;1485;-69
2022/05/23 04:17:12;;;;;;;;;;;25.80;39.30;;;;;;1497546;78;688;-69
2022/05/23 04:19:14;;;;;;;;;;;25.80;39.30;;;;;;1502377;78;680;-69
2022/05/23 04:21:16;;;;;;;;;;;25.70;39.30;;;;;;1502267;78;683;-69
2022/05/23 04:23:18;;;;;;;;;;;25.80;39.30;;;;;;1502878;78;701;-70
2022/05/23 04:25:20;;;;;;;;;;;25.80;39.30;;;;;;1498218;77;1141;-69
2022/05/23 04:27:22;;;;;;;;;;;25.80;39.40;;;;;;1497915;78;695;-70
2022/05/23 04:29:24;;;;;;;;;;;25.80;39.30;;;;;;1498785;78;1545;-70
2022/05/23 04:31:26;;;;;;;;;;;25.80;39.40;;;;;;1509913;78;1941;-69
2022/05/23 04:35:50;;;;;;;;;;;25.80;39.60;;;;;;1475536;78;1608;-72
2022/05/23 04:37:52;;;;;;;;;;;25.80;39.60;;;;;;1491967;78;700;-72
2022/05/23 04:39:54;;;;;;;;;;;25.80;39.60;;;;;;1481369;78;669;-73
2022/05/23 04:41:56;;;;;;;;;;;25.80;39.50;;;;;;1497357;78;675;-69
2022/05/23 04:43:58;;;;;;;;;;;25.80;39.50;;;;;;1478097;79;1468;-71
2022/05/23 04:46:00;;;;;;;;;;;25.90;39.40;;;;;;1497167;78;1188;-68
2022/05/23 04:50:22;;;;;;;;;;;25.90;39.20;;;;;;1500881;78;1914;-71
2022/05/23 04:52:23;;;;;;;;;;;25.90;39.20;;;;;;1500165;78;672;-71
2022/05/23 04:54:25;;;;;;;;;;;25.90;39.20;;;;;;1485228;78;719;-71
2022/05/23 04:56:29;;;;;;;;;;;25.80;39.20;;;;;;1481029;78;1489;-71
2022/05/23 04:58:31;;;;;;;;;;;25.80;39.20;;;;;;1487271;78;628;-70
2022/05/23 05:00:33;;;;;;;;;;;25.70;39.40;;;;;;1502973;78;631;-65
2022/05/23 05:02:35;;;;;;;;;;;25.80;39.40;;;;;;1485010;78;682;-70
2022/05/23 05:04:37;;;;;;;;;;;25.80;39.40;;;;;;1496595;78;1116;-69
2022/05/23 05:06:39;;;;;;;;;;;25.90;39.20;;;;;;1478797;78;584;-69
2022/05/23 05:08:41;;;;;;;;;;;25.80;39.10;;;;;;1480002;78;715;-69
2022/05/23 05:10:43;;;;;;;;;;;25.80;39.10;;;;;;1498350;78;1937;-68
2022/05/23 05:12:44;;;;;;;;;;;25.80;39.20;;;;;;1503599;78;713;-68
2022/05/23 05:14:46;;;;;;;;;;;25.70;39.20;;;;;;1497728;78;1167;-68
2022/05/23 05:16:49;;;;;;;;;;;25.70;39.20;;;;;;1500271;78;692;-69
2022/05/23 05:18:50;;;;;;;;;;;25.70;39.20;;;;;;1497602;78;647;-70
2022/05/23 05:20:53;;;;;;;;;;;25.70;39.20;;;;;;1494543;78;651;-73
2022/05/23 05:22:55;;;;;;;;;;;25.70;39.20;;;;;;1488129;79;699;-68
2022/05/23 05:24:57;;;;;;;;;;;25.70;39.20;;;;;;1500653;78;1574;-71
2022/05/23 05:27:01;;;;;;;;;;;25.70;39.30;;;;;;1504605;78;671;-70
2022/05/23 05:29:03;;;;;;;;;;;25.80;39.20;;;;;;1485262;78;1341;-68
2022/05/23 05:31:12;;;;;;;;;;;25.80;39.20;;;;;;1495741;78;1936;-68
2022/05/23 05:33:16;;;;;;;;;;;25.90;39.00;;;;;;1481229;79;1719;-67
2022/05/23 05:35:28;;;;;;;;;;;25.80;39.10;;;;;;1490939;78;1114;-67
2022/05/23 05:37:31;;;;;;;;;;;25.80;39.10;;;;;;1485812;78;816;-68
2022/05/23 05:39:33;;;;;;;;;;;25.60;39.20;;;;;;1491971;78;1526;-69
2022/05/23 05:41:52;;;;;;;;;;;25.70;39.20;;;;;;1494717;78;663;-71
2022/05/23 05:43:59;;;;;;;;;;;25.60;39.30;;;;;;1493478;78;1088;-69
2022/05/23 05:46:02;;;;;;;;;;;25.50;39.30;;;;;;1491363;78;1719;-70
2022/05/23 05:48:04;;;;;;;;;;;25.60;39.30;;;;;;1488409;78;737;-69
2022/05/23 05:50:08;;;;;;;;;;;25.60;39.30;;;;;;1496136;78;644;-71
2022/05/23 05:52:12;;;;;;;;;;;25.60;39.40;;;;;;1492474;78;1944;-69
2022/05/23 05:54:14;;;;;;;;;;;25.60;39.40;;;;;;1492714;78;1590;-64
2022/05/23 05:56:16;;;;;;;;;;;25.60;39.40;;;;;;1486738;79;1123;-67
2022/05/23 05:58:18;;;;;;;;;;;25.60;39.40;;;;;;1494417;78;767;-66
2022/05/23 06:00:20;;;;;;;;;;;25.50;39.40;;;;;;1494213;78;596;-66
2022/05/23 06:02:22;;;;;;;;;;;25.50;39.40;;;;;;1508085;78;694;-67
2022/05/23 06:04:24;;;;;;;;;;;25.50;39.50;;;;;;1493245;78;683;-67
2022/05/23 06:11:26;;;;;;;;;;;25.50;39.40;;;;;;1503284;78;1899;-70
2022/05/23 06:13:29;;;;;;;;;;;25.50;39.80;;;;;;1515325;76;646;-56
2022/05/23 06:15:31;;;;;;;;;;;25.50;39.50;;;;;;1522623;76;704;-56
2022/05/23 06:17:34;;;;;;;;;;;25.50;39.50;;;;;;1516390;76;686;-56
2022/05/23 06:19:40;;;;;;;;;;;25.50;39.40;;;;;;1509969;76;1876;-56
2022/05/23 06:21:42;;;;;;;;;;;25.50;39.40;;;;;;1517437;76;1378;-56
2022/05/23 06:23:46;;;;;;;;;;;25.40;39.50;;;;;;1505766;76;690;-56
2022/05/23 06:25:47;;;;;;;;;;;25.50;39.50;;;;;;1504889;76;1148;-54
2022/05/23 06:27:50;;;;;;;;;;;25.50;39.40;;;;;;1510703;76;725;-55
2022/05/23 06:29:52;;;;;;;;;;;25.50;39.40;;;;;;1513960;76;1143;-56
2022/05/23 06:31:54;;;;;;;;;;;25.50;39.40;;;;;;1505339;76;1932;-53
2022/05/23 06:33:55;;;;;;;;;;;25.50;39.40;;;;;;1494654;77;584;-54
2022/05/23 06:35:57;;;;;;;;;;;25.50;39.40;;;;;;1497345;77;1476;-53
2022/05/23 06:37:59;;;;;;;;;;;25.50;39.50;;;;;;1491657;77;810;-55
2022/05/23 06:40:03;;;;;;;;;;;25.40;39.50;;;;;;1491383;77;1162;-55
2022/05/23 06:42:05;;;;;;;;;;;25.40;39.40;;;;;;1499445;77;690;-53
2022/05/23 06:44:07;;;;;;;;;;;25.50;39.40;;;;;;1488945;77;717;-54
2022/05/23 06:46:09;;;;;;;;;;;25.50;39.40;;;;;;1494806;77;702;-55
2022/05/23 06:48:11;;;;;;;;;;;25.50;39.40;;;;;;1495343;77;645;-55
2022/05/23 06:50:13;;;;;;;;;;;25.50;39.40;;;;;;1494568;77;1434;-53
2022/05/23 06:52:15;;;;;;;;;;;25.50;39.40;;;;;;1507766;77;1905;-53
2022/05/23 06:54:17;;;;;;;;;;;25.50;39.40;;;;;;1503765;77;661;-54
2022/05/23 06:56:19;;;;;;;;;;;25.50;39.40;;;;;;1502611;77;721;-54
2022/05/23 06:58:21;;;;;;;;;;;25.40;39.40;;;;;;1503973;77;728;-54
2022/05/23 07:00:23;;;;;;;;;;;25.50;39.30;;;;;;1505684;77;1160;-55
2022/05/23 07:02:26;;;;;;;;;;;25.60;39.20;;;;;;1508253;77;705;-55
2022/05/23 07:12:19;;;;;;;;;;;25.50;39.20;;;;;;1503710;77;1461;-54
2022/05/23 07:13:35;;;;;;;;;;;25.60;39.00;;;;;;1488396;77;1647;-55
2022/05/23 07:15:38;;;;;;;;;;;25.50;38.90;;;;;;1501761;77;594;-54
2022/05/23 07:17:40;;;;;;;;;;;25.50;38.80;;;;;;1503809;77;1494;-53
2022/05/23 07:19:42;;;;;;;;;;;25.50;38.70;;;;;;1503234;77;667;-56
2022/05/23 07:21:44;;;;;;;;;;;25.50;38.70;;;;;;1489762;77;1107;-56
2022/05/23 07:23:46;;;;;;;;;;;25.40;38.60;;;;;;1511299;77;773;-56
2022/05/23 07:25:48;;;;;;;;;;;25.50;38.70;;;;;;1499906;77;751;-56
2022/05/23 07:27:50;;;;;;;;;;;25.40;38.70;;;;;;1508984;77;545;-53
2022/05/23 07:29:51;;;;;;;;;;;25.40;38.90;;;;;;1509435;77;1148;-54
2022/05/23 07:31:53;;;;;;;;;;;25.40;38.80;;;;;;1501275;77;1941;-54
2022/05/23 07:33:55;;;;;;;;;;;25.30;38.90;;;;;;1494988;77;647;-55
2022/05/23 07:35:58;;;;;;;;;;;25.20;39.00;;;;;;1487398;77;601;-54
2022/05/23 07:38:00;;;;;;;;;;;25.30;39.10;;;;;;1497590;77;763;-57
2022/05/23 07:40:02;;;;;;;;;;;25.30;39.10;;;;;;1493402;77;1142;-55
2022/05/23 07:42:04;;;;;;;;;;;25.30;39.20;;;;;;1499902;77;646;-56
2022/05/23 07:44:07;;;;;;;;;;;25.40;39.20;;;;;;1500125;77;811;-55
2022/05/23 07:46:12;;;;;;;;;;;25.20;39.20;;;;;;1498967;77;1493;-53
2022/05/23 07:48:14;;;;;;;;;;;25.30;39.20;;;;;;1495025;77;1719;-55
2022/05/23 07:50:16;;;;;;;;;;;25.30;39.20;;;;;;1494315;77;1154;-56
2022/05/23 07:52:18;;;;;;;;;;;25.10;39.10;;;;;;1496305;77;1951;-54
2022/05/23 08:01:20;;;;;;;;;;;24.80;40.90;;;;;;1507715;77;1633;-56
2022/05/23 08:03:22;;;;;;;;;;;24.60;40.70;;;;;;1504264;77;804;-55
2022/05/23 08:05:23;;;;;;;;;;;24.60;41.50;;;;;;1499785;77;663;-56
2022/05/23 08:07:28;;;;;;;;;;;24.50;41.00;;;;;;1499270;77;635;-55
2022/05/23 08:09:29;;;;;;;;;;;24.60;40.90;;;;;;1502231;77;1735;-56
2022/05/23 08:11:31;;;;;;;;;;;24.70;41.50;;;;;;1491337;77;1940;-56
2022/05/23 08:13:32;;;;;;;;;;;24.60;41.90;;;;;;1500194;77;1454;-55
2022/05/23 08:15:34;;;;;;;;;;;24.50;41.40;;;;;;1492762;77;617;-56
2022/05/23 08:17:36;;;;;;;;;;;24.50;42.10;;;;;;1489164;77;688;-56
2022/05/23 08:19:38;;;;;;;;;;;24.50;42.50;;;;;;1496749;77;678;-56
2022/05/23 08:21:42;;;;;;;;;;;24.40;41.80;;;;;;1504235;77;1130;-56
2022/05/23 08:23:44;;;;;;;;;;;24.50;41.90;;;;;;1520226;77;1383;-56
2022/05/23 08:25:46;;;;;;;;;;;24.40;42.30;;;;;;1506015;77;673;-56
2022/05/23 08:27:48;;;;;;;;;;;24.40;42.30;;;;;;1498514;77;1496;-56
2022/05/23 08:29:50;;;;;;;;;;;24.40;42.40;;;;;;1492291;77;1168;-56
2022/05/23 08:31:51;;;;;;;;;;;24.50;42.60;;;;;;1507981;77;1914;-56
2022/05/23 08:33:53;;;;;;;;;;;24.50;42.90;;;;;;1500948;77;660;-55
2022/05/23 08:35:55;;;;;;;;;;;24.50;42.70;;;;;;1500634;77;649;-56
2022/05/23 08:37:59;;;;;;;;;;;24.50;42.90;;;;;;1522131;77;767;-56
2022/05/23 08:40:01;;;;;;;;;;;24.50;43.00;;;;;;1497983;77;1257;-57
2022/05/23 08:42:05;;;;;;;;;;;24.50;43.00;;;;;;1500466;77;1650;-55
2022/05/23 08:44:25;;;;;;;;;;;24.50;43.30;;;;;;1495271;77;711;-55
2022/05/23 08:46:28;;;;;;;;;;;24.60;43.40;;;;;;1496761;77;687;-56
2022/05/23 08:48:32;;;;;;;;;;;24.60;43.50;;;;;;1498769;77;1814;-55
2022/05/23 08:50:52;;;;;;;;;;;24.70;43.40;;;;;;1495577;77;1178;-58
2022/05/23 08:52:54;;;;;;;;;;;24.80;43.50;;;;;;1495611;77;1925;-57
2022/05/23 08:55:05;;;;;;;;;;;24.80;42.90;;;;;;1495117;77;659;-57
2022/05/23 08:57:04;;;;;;;;;;;25.00;43.00;;;;;;1512351;77;1786;-57
2022/05/23 08:59:07;;;;;;;;;;;24.90;43.20;;;;;;1506441;77;711;-57
2022/05/23 09:01:11;;;;;;;;;;;24.90;42.80;;;;;;1499875;77;1201;-57
2022/05/23 09:03:14;;;;;;;;;;;25.00;43.00;;;;;;1500186;77;1068;-58
2022/05/23 09:05:18;;;;;;;;;;;25.10;42.80;;;;;;1492148;76;708;-56
2022/05/23 09:07:28;;;;;;;;;;;25.20;42.60;;;;;;1500076;77;666;-57
2022/05/23 09:09:32;;;;;;;;;;;25.30;42.50;;;;;;1493863;77;1563;-57
2022/05/23 09:11:41;;;;;;;;;;;25.30;42.40;;;;;;1500316;76;1513;-57
2022/05/23 09:13:44;;;;;;;;;;;25.30;42.30;;;;;;1499002;77;1891;-56
2022/05/23 09:15:46;;;;;;;;;;;25.40;42.30;;;;;;1507359;77;636;-57
2022/05/23 09:17:50;;;;;;;;;;;25.50;42.20;;;;;;1493547;77;673;-57
2022/05/23 09:20:02;;;;;;;;;;;25.50;42.30;;;;;;1499995;77;1273;-56
2022/05/23 09:22:18;;;;;;;;;;;25.50;42.20;;;;;;1509708;77;1789;-56
2022/05/23 09:24:19;;;;;;;;;;;25.50;42.50;;;;;;1499709;77;1703;-57
2022/05/23 09:26:25;;;;;;;;;;;25.40;42.10;;;;;;1490014;77;764;-55
2022/05/23 09:28:40;;;;;;;;;;;25.40;42.20;;;;;;1498830;77;1797;-58
2022/05/23 09:30:43;;;;;;;;;;;25.40;42.50;;;;;;1506341;77;1174;-58
2022/05/23 09:33:04;;;;;;;;;;;25.30;42.30;;;;;;1504950;77;1897;-57
2022/05/23 09:35:25;;;;;;;;;;;25.30;42.20;;;;;;1504186;77;672;-56
2022/05/23 09:37:38;;;;;;;;;;;25.40;42.30;;;;;;1515747;77;555;-55
2022/05/23 09:39:39;;;;;;;;;;;25.40;42.30;;;;;;1514959;77;1619;-54
2022/05/23 09:48:34;;;;;;;;;;;25.30;42.40;;;;;;1463772;79;952;-57
2022/05/23 09:50:37;;;;;;;;;;;25.30;43.10;;;;;;1503122;78;1163;-55
2022/05/23 09:52:49;;;;;;;;;;;25.40;42.90;;;;;;1498275;79;1933;-57
2022/05/23 09:54:52;;;;;;;;;;;25.30;43.00;;;;;;1502124;78;740;-56
2022/05/23 09:56:54;;;;;;;;;;;25.30;42.80;;;;;;1501286;78;878;-51
2022/05/23 09:58:56;;;;;;;;;;;25.30;43.00;;;;;;1497205;79;739;-54
2022/05/23 10:01:01;;;;;;;;;;;25.30;43.40;;;;;;1500958;79;1190;-59
2022/05/23 10:03:04;;;;;;;;;;;25.30;43.30;;;;;;1498573;79;788;-58
2022/05/23 10:05:07;;;;;;;;;;;25.40;43.00;;;;;;1498973;79;790;-54
2022/05/23 10:07:10;;;;;;;;;;;25.30;43.20;;;;;;1500980;78;1607;-59
2022/05/23 10:09:14;;;;;;;;;;;25.30;43.00;;;;;;1502599;78;941;-59
2022/05/23 10:11:20;;;;;;;;;;;25.30;42.90;;;;;;1492076;78;1752;-57
2022/05/23 10:13:31;;;;;;;;;;;25.40;42.80;;;;;;1501647;79;1931;-58
2022/05/23 10:15:34;;;;;;;;;;;25.40;42.80;;;;;;1501576;79;831;-56
2022/05/23 10:17:37;;;;;;;;;;;25.50;42.60;;;;;;1499610;79;764;-54
2022/05/23 10:19:39;;;;;;;;;;;25.50;42.60;;;;;;1502220;79;709;-57
2022/05/23 10:21:43;;;;;;;;;;;25.50;42.50;;;;;;1500024;78;1634;-57
2022/05/23 10:23:46;;;;;;;;;;;25.50;42.50;;;;;;1503590;78;740;-54
2022/05/23 10:25:52;;;;;;;;;;;25.60;42.30;;;;;;1502984;78;735;-58
2022/05/23 10:27:56;;;;;;;;;;;25.70;42.20;;;;;;1503800;78;927;-58
2022/05/23 10:29:58;;;;;;;;;;;25.80;42.10;;;;;;1502364;78;1142;-58
2022/05/23 10:32:06;;;;;;;;;;;25.80;41.80;;;;;;1504412;78;902;-53
2022/05/23 10:34:12;;;;;;;;;;;25.80;42.00;;;;;;1503245;79;1911;-57
2022/05/23 10:36:21;;;;;;;;;;;25.90;41.80;;;;;;1504592;78;782;-57
2022/05/23 10:43:09;;;;;;;;;;;25.90;41.60;;;;;;1498470;78;1713;-57
2022/05/23 10:45:16;;;;;;;;;;;25.90;41.50;;;;;;1484104;78;1211;-57
2022/05/23 10:47:22;;;;;;;;;;;25.90;41.50;;;;;;1493723;78;1853;-56
2022/05/23 10:49:26;;;;;;;;;;;25.90;41.50;;;;;;1489463;78;1632;-57
2022/05/23 10:51:42;;;;;;;;;;;25.90;41.30;;;;;;1485812;78;1102;-57
2022/05/23 10:53:48;;;;;;;;;;;25.90;41.30;;;;;;1500459;79;1922;-57
2022/05/23 10:56:08;;;;;;;;;;;25.90;41.40;;;;;;1490660;78;1010;-55
2022/05/23 10:58:20;;;;;;;;;;;25.90;41.30;;;;;;1489993;78;803;-57
2022/05/23 11:00:23;;;;;;;;;;;25.90;41.30;;;;;;1503279;78;1182;-57
2022/05/23 11:02:36;;;;;;;;;;;25.90;41.30;;;;;;1499761;79;1580;-52
2022/05/23 11:04:40;;;;;;;;;;;25.90;41.40;;;;;;1502387;78;563;-54
2022/05/23 11:06:52;;;;;;;;;;;26.00;41.80;;;;;;1499817;79;708;-55
2022/05/23 11:09:08;;;;;;;;;;;25.90;41.30;;;;;;1499776;78;707;-51
2022/05/23 11:11:21;;;;;;;;;;;25.90;41.30;;;;;;1499352;78;1138;-55
2022/05/23 11:13:27;;;;;;;;;;;25.90;41.30;;;;;;1491033;79;1924;-57
2022/05/23 11:15:31;;;;;;;;;;;25.90;41.20;;;;;;1502745;79;682;-57
2022/05/23 11:17:38;;;;;;;;;;;25.90;41.20;;;;;;1502838;78;1618;-56
2022/05/23 11:19:47;;;;;;;;;;;25.90;41.20;;;;;;1504219;78;819;-53
2022/05/23 11:22:03;;;;;;;;;;;25.90;41.10;;;;;;1500949;78;1182;-54
2022/05/23 11:24:06;;;;;;;;;;;25.90;41.10;;;;;;1501657;78;809;-57
2022/05/23 11:26:09;;;;;;;;;;;25.90;41.00;;;;;;1503485;79;705;-57
2022/05/23 11:35:41;;;;;;;;;;;26.00;41.60;;;;;;1503368;79;1633;-57
2022/05/23 11:37:43;;;;;;;;;;;26.00;41.50;;;;;;1499393;79;1666;-57
2022/05/23 11:39:52;;;;;;;;;;;25.90;40.90;;;;;;1501043;78;736;-57
2022/05/23 11:41:53;;;;;;;;;;;25.90;40.90;;;;;;1503464;79;711;-57
2022/05/23 11:43:55;;;;;;;;;;;26.00;41.50;;;;;;1504321;79;736;-57
2022/05/23 11:46:00;;;;;;;;;;;26.00;41.30;;;;;;1503095;78;1584;-53
2022/05/23 11:48:02;;;;;;;;;;;26.00;41.30;;;;;;1503233;78;929;-56
2022/05/23 11:50:06;;;;;;;;;;;26.00;41.30;;;;;;1504181;78;1248;-56
2022/05/23 11:52:10;;;;;;;;;;;26.00;41.30;;;;;;1498121;79;977;-55
2022/05/23 11:54:14;;;;;;;;;;;26.00;41.20;;;;;;1503000;78;1903;-57
2022/05/23 11:56:34;;;;;;;;;;;26.00;41.20;;;;;;1504404;79;570;-54
2022/05/23 11:58:37;;;;;;;;;;;26.00;41.20;;;;;;1504135;79;1540;-54
2022/05/23 12:00:39;;;;;;;;;;;26.00;41.20;;;;;;1488254;78;1141;-58
2022/05/23 12:02:41;;;;;;;;;;;26.00;41.60;;;;;;1499657;78;678;-58
2022/05/23 12:04:57;;;;;;;;;;;26.00;41.60;;;;;;1488668;78;1288;-58
2022/05/23 12:06:59;;;;;;;;;;;25.90;40.90;;;;;;1486286;78;731;-57
2022/05/23 12:09:05;;;;;;;;;;;25.90;40.80;;;;;;1508841;78;731;-55
2022/05/23 12:11:08;;;;;;;;;;;26.00;41.30;;;;;;1497059;78;1145;-54
2022/05/23 12:13:27;;;;;;;;;;;26.00;41.30;;;;;;1486872;78;1930;-58
2022/05/23 12:15:50;;;;;;;;;;;26.00;41.30;;;;;;1490864;78;753;-58
2022/05/23 12:17:50;;;;;;;;;;;26.10;41.20;;;;;;1496973;78;1605;-57
2022/05/23 12:19:58;;;;;;;;;;;26.10;41.30;;;;;;1491487;78;1861;-58
2022/05/23 12:22:15;;;;;;;;;;;26.00;41.30;;;;;;1500857;78;1476;-57
2022/05/23 12:24:27;;;;;;;;;;;26.10;41.30;;;;;;1504207;78;837;-58
2022/05/23 12:26:31;;;;;;;;;;;26.00;41.30;;;;;;1504911;79;1338;-56
2022/05/23 12:28:34;;;;;;;;;;;26.10;41.30;;;;;;1501313;78;892;-56
2022/05/23 12:30:37;;;;;;;;;;;26.00;41.30;;;;;;1502110;78;1904;-53
2022/05/23 12:32:39;;;;;;;;;;;26.00;41.10;;;;;;1502696;79;602;-57
2022/05/23 12:34:42;;;;;;;;;;;26.10;41.10;;;;;;1502858;79;1942;-54
2022/05/23 12:36:45;;;;;;;;;;;26.00;41.20;;;;;;1505168;79;683;-58
2022/05/23 12:39:01;;;;;;;;;;;26.00;41.30;;;;;;1499349;78;1049;-58
2022/05/23 12:41:14;;;;;;;;;;;26.00;41.30;;;;;;1503338;78;1637;-57
2022/05/23 12:43:27;;;;;;;;;;;26.00;41.20;;;;;;1494321;78;2079;-57
2022/05/23 12:45:46;;;;;;;;;;;25.90;41.10;;;;;;1502447;78;1983;-57
2022/05/23 12:48:06;;;;;;;;;;;25.90;41.40;;;;;;1493988;78;700;-58
2022/05/23 12:50:13;;;;;;;;;;;25.90;41.40;;;;;;1502242;79;1155;-55
2022/05/23 12:52:22;;;;;;;;;;;25.90;41.40;;;;;;1499355;78;753;-54
2022/05/23 12:54:42;;;;;;;;;;;25.90;41.50;;;;;;1501852;79;1937;-55
2022/05/23 12:56:46;;;;;;;;;;;25.90;41.50;;;;;;1498295;78;646;-54
2022/05/23 12:59:03;;;;;;;;;;;25.80;41.60;;;;;;1481455;79;1015;-56
2022/05/23 13:01:12;;;;;;;;;;;25.90;41.30;;;;;;1493728;79;1736;-57
2022/05/23 13:03:18;;;;;;;;;;;25.90;41.10;;;;;;1501509;79;785;-57
2022/05/23 13:05:25;;;;;;;;;;;26.00;41.50;;;;;;1499189;79;653;-57
2022/05/23 13:07:31;;;;;;;;;;;26.00;41.40;;;;;;1486448;78;669;-57
2022/05/23 13:09:44;;;;;;;;;;;26.10;41.30;;;;;;1503952;78;1900;-56
2022/05/23 13:11:48;;;;;;;;;;;26.10;41.30;;;;;;1499987;78;1192;-54